Stations météo

réclame
Mon MeteoGroup
Blackpool/Squires Gate, Grande-Bretagne (3318): Température de l'air & dewpoint: 20.08.2019 01:00:00 - 26.08.2019 01:00:00 (BST)Blackpool/Squires Gate, Grande-Bretagne (3318): Vitesse du vent & gusts: 20.08.2019 01:00:00 - 26.08.2019 01:00:00 (BST)Blackpool/Squires Gate, Grande-Bretagne (3318): Direction du vent: 20.08.2019 01:00:00 - 26.08.2019 01:00:00 (BST)Blackpool/Squires Gate, Grande-Bretagne (3318): Quantités de précipitations: 20.08.2019 01:00:00 - 26.08.2019 01:00:00 (BST)
Date & Time tt [°C] td [°C] ff [km/h] ff [knt] fx [km/h] fx [knt] dd rr [mm]
26.08.2019 01:00:00 16,8 15,3 8 4 - - NW 0,0
26.08.2019 00:00:00 16,7 14,9 8 4 - - NW 0,0
25.08.2019 23:00:00 16,6 14,3 5 3 - - NNW 0,0
25.08.2019 22:00:00 17,0 14,6 5 3 - - NW 0,0
25.08.2019 21:00:00 17,2 14,5 13 7 - - NW 0,0
25.08.2019 20:00:00 17,5 14,8 11 6 - - WNW 0,0
25.08.2019 19:00:00 18,1 14,7 13 7 - - WNW 0,0
25.08.2019 18:00:00 18,7 14,8 15 8 - - NW 0,0
25.08.2019 17:00:00 18,9 15,2 24 13 - - NW 0,0
25.08.2019 16:00:00 18,3 15,4 24 13 - - WNW 0,0
25.08.2019 15:00:00 18,2 15,6 22 12 - - WNW 0,0
25.08.2019 14:00:00 21,4 16,2 21 11 - - WNW 0,0
25.08.2019 13:00:00 28,3 13,6 16 9 - - SSE 0,0
25.08.2019 12:00:00 27,5 13,9 18 10 - - SSE 0,0
25.08.2019 11:00:00 25,2 14,5 16 9 - - SE 0,0
25.08.2019 10:00:00 23,6 15,0 16 9 - - SE 0,0
25.08.2019 09:00:00 21,0 14,6 13 7 - - ESE 0,0
25.08.2019 08:00:00 19,1 13,4 11 6 - - ESE 0,0
25.08.2019 07:00:00 17,0 12,9 16 9 - - ESE 0,0
25.08.2019 06:00:00 16,0 12,4 9 5 - - ESE 0,0
25.08.2019 05:00:00 15,4 12,2 15 8 - - ESE 0,0
25.08.2019 04:00:00 16,8 12,3 16 9 - - ESE 0,0
25.08.2019 03:00:00 16,7 12,3 15 8 - - ESE 0,0
25.08.2019 02:00:00 16,7 12,4 15 8 - - ESE 0,0
25.08.2019 01:00:00 16,4 12,6 9 5 - - E 0,0
25.08.2019 00:00:00 17,3 13,0 11 6 - - E 0,0
24.08.2019 23:00:00 17,5 13,2 11 6 - - E 0,0
24.08.2019 22:00:00 18,3 13,0 9 5 - - E 0,0
24.08.2019 21:00:00 19,7 13,5 8 4 - - E 0,0
24.08.2019 20:00:00 21,6 14,2 5 3 - - E 0,0
24.08.2019 19:00:00 23,6 14,0 9 5 - - ESE 0,0
24.08.2019 18:00:00 24,8 14,0 15 8 - - SSE 0,0
24.08.2019 17:00:00 25,3 12,4 16 9 - - SSE 0,0
24.08.2019 16:00:00 26,3 12,1 18 10 - - S 0,0
24.08.2019 15:00:00 25,0 14,3 18 10 - - SW 0,0
24.08.2019 14:00:00 25,5 13,0 22 12 - - S 0,0
24.08.2019 13:00:00 24,6 12,6 24 13 - - S 0,0
24.08.2019 12:00:00 23,7 12,5 24 13 - - SSE 0,0
24.08.2019 11:00:00 21,8 14,2 18 10 - - SE 0,0
24.08.2019 10:00:00 19,9 14,9 18 10 - - SSE 0,0
24.08.2019 09:00:00 17,6 15,5 15 8 - - SE 0,0
24.08.2019 08:00:00 15,7 15,0 11 6 - - ESE 0,0
24.08.2019 07:00:00 13,3 12,8 13 7 - - SE 0,0
24.08.2019 06:00:00 13,1 12,6 11 6 - - ESE 0,0
24.08.2019 05:00:00 12,8 12,3 9 5 - - ESE 0,0
24.08.2019 04:00:00 13,0 12,5 9 5 - - ESE 0,0
24.08.2019 03:00:00 13,0 12,3 11 6 - - SE 0,0
24.08.2019 02:00:00 14,0 13,4 13 7 - - ESE 0,0
24.08.2019 01:00:00 14,4 13,7 8 4 - - ESE 0,0
24.08.2019 00:00:00 14,8 12,7 5 3 - - E 0,0
23.08.2019 23:00:00 16,2 14,6 4 2 - - WNW 0,0
23.08.2019 22:00:00 16,6 14,2 8 4 - - ENE 0,0
23.08.2019 21:00:00 17,5 14,6 8 4 - - ENE 0,0
23.08.2019 20:00:00 18,1 14,5 9 5 - - NNE 0,0
23.08.2019 19:00:00 18,0 14,6 13 7 - - NNW 0,0
23.08.2019 18:00:00 19,5 14,9 13 7 - - NW 0,0
23.08.2019 17:00:00 20,0 15,1 9 5 - - NW 0,0
23.08.2019 16:00:00 20,6 15,6 9 5 - - WNW 0,0
23.08.2019 15:00:00 20,0 16,1 15 8 - - WNW 0,0
23.08.2019 14:00:00 19,6 16,0 15 8 - - WNW 0,0
23.08.2019 13:00:00 19,4 15,7 16 9 - - W 0,0
23.08.2019 12:00:00 18,5 15,8 13 7 - - W 0,0
23.08.2019 11:00:00 18,9 15,9 13 7 - - W 0,0
23.08.2019 10:00:00 18,2 15,9 15 8 - - WSW 0,0
23.08.2019 09:00:00 17,4 15,7 11 6 - - W 0,0
23.08.2019 08:00:00 17,5 15,8 16 9 - - SW 0,0
23.08.2019 07:00:00 17,0 15,6 18 10 - - SW 0,0
23.08.2019 06:00:00 16,8 15,2 29 16 - - WSW 0,0
23.08.2019 05:00:00 17,3 15,4 28 15 - - WSW 0,0
23.08.2019 04:00:00 17,3 15,6 26 14 - - WSW 0,0
23.08.2019 03:00:00 17,2 15,7 28 15 - - WSW 0,0
23.08.2019 02:00:00 17,2 15,8 18 10 - - WSW 0,0
23.08.2019 01:00:00 17,2 15,8 22 12 - - SW 0,0
23.08.2019 00:00:00 17,1 15,7 21 11 - - SW 0,0
22.08.2019 23:00:00 17,4 15,8 18 10 - - WSW 0,0
22.08.2019 22:00:00 17,4 15,9 16 9 - - SW 0,0
22.08.2019 21:00:00 17,7 15,8 29 16 - - WSW 0,0
22.08.2019 20:00:00 17,5 15,8 29 16 50 27 WSW 0,0
22.08.2019 19:00:00 17,7 15,6 35 19 46 25 WSW 0,0
22.08.2019 18:00:00 18,2 15,4 34 18 50 27 WSW 0,0
22.08.2019 17:00:00 18,2 15,6 35 19 50 27 WSW 0,0
22.08.2019 16:00:00 18,1 15,8 31 17 48 26 W 0,0
22.08.2019 15:00:00 17,9 15,6 39 21 54 29 W 0,0
22.08.2019 14:00:00 17,8 16,0 35 19 50 27 W 0,0
22.08.2019 13:00:00 17,3 16,1 35 19 48 26 WSW 0,0
22.08.2019 12:00:00 16,7 15,9 35 19 52 28 WSW 0,2
22.08.2019 11:00:00 17,0 15,2 34 18 48 26 WSW 0,0
22.08.2019 10:00:00 16,9 15,2 37 20 52 28 WSW 0,0
22.08.2019 09:00:00 16,7 15,2 37 20 54 29 WSW 0,0
22.08.2019 08:00:00 16,4 15,1 35 19 50 27 WSW 0,0
22.08.2019 07:00:00 16,3 15,3 37 20 52 28 WSW 0,2
22.08.2019 06:00:00 15,9 15,4 28 15 50 27 W 1,0
22.08.2019 05:00:00 16,0 15,2 37 20 59 32 W 0,0
22.08.2019 04:00:00 16,3 15,1 39 21 61 33 W 0,0
22.08.2019 03:00:00 16,0 15,0 42 23 61 33 WSW 0,0
22.08.2019 02:00:00 15,3 14,3 35 19 48 26 SW 0,4
22.08.2019 01:00:00 15,5 13,0 34 18 52 28 SW 0,0
22.08.2019 00:00:00 14,6 12,7 34 18 46 25 SW 0,8
21.08.2019 23:00:00 14,8 12,9 34 18 50 27 SW 0,6
21.08.2019 22:00:00 16,1 12,4 29 16 50 27 SW 0,0
21.08.2019 21:00:00 16,1 12,5 34 18 48 26 SW 0,0
21.08.2019 20:00:00 16,1 13,3 28 15 - - SW 0,0
21.08.2019 19:00:00 16,6 13,5 21 11 - - WSW 0,0
21.08.2019 18:00:00 17,6 13,4 24 13 - - WSW 0,0
21.08.2019 17:00:00 17,6 13,5 18 10 - - WSW 0,0
21.08.2019 16:00:00 18,0 13,7 29 16 - - WSW 0,0
21.08.2019 15:00:00 19,1 13,6 22 12 - - SW 0,0
21.08.2019 14:00:00 16,9 13,3 21 11 - - SW 0,0
21.08.2019 13:00:00 16,4 12,7 31 17 52 28 SW 0,0
21.08.2019 12:00:00 18,0 12,9 24 13 - - WSW 0,0
21.08.2019 11:00:00 18,2 12,9 21 11 - - SW 0,0
21.08.2019 10:00:00 17,5 13,2 22 12 - - SW 0,0
21.08.2019 09:00:00 16,9 13,3 18 10 - - SW 0,0
21.08.2019 08:00:00 16,0 13,8 22 12 - - SW 0,0
21.08.2019 07:00:00 15,2 13,2 15 8 - - WSW 0,0
21.08.2019 06:00:00 15,6 13,2 21 11 - - W 0,0
21.08.2019 05:00:00 15,7 13,3 24 13 - - W 0,0
21.08.2019 04:00:00 15,8 13,8 28 15 - - W 0,0
21.08.2019 03:00:00 15,8 13,8 24 13 - - W 0,2
21.08.2019 02:00:00 15,7 14,0 28 15 - - W 0,0
21.08.2019 01:00:00 15,7 14,1 28 15 - - W 0,0
21.08.2019 00:00:00 15,6 14,5 29 16 - - WSW 0,0
20.08.2019 23:00:00 13,5 13,0 16 9 - - SSE 0,4
20.08.2019 22:00:00 13,6 13,1 18 10 - - S 3,4
20.08.2019 21:00:00 13,9 12,8 24 13 - - SSW 1,2
20.08.2019 20:00:00 15,6 11,8 16 9 - - SW 0,0
20.08.2019 19:00:00 16,1 11,7 18 10 - - W 0,0
20.08.2019 18:00:00 16,3 10,2 11 6 - - W 0,0
20.08.2019 17:00:00 17,2 10,7 15 8 - - W 0,0
20.08.2019 16:00:00 16,3 9,6 18 10 - - W 0,0
20.08.2019 15:00:00 17,2 9,9 24 13 - - W 0,0
20.08.2019 14:00:00 16,8 10,3 24 13 - - W 0,0
20.08.2019 13:00:00 16,5 10,2 26 14 - - W 0,0
20.08.2019 12:00:00 16,4 9,7 24 13 - - WNW 0,0
20.08.2019 11:00:00 16,0 10,4 22 12 - - WNW 0,0
20.08.2019 10:00:00 15,1 8,4 26 14 - - WNW 0,0
20.08.2019 09:00:00 14,8 10,0 24 13 - - WNW 0,0
20.08.2019 08:00:00 14,6 9,4 26 14 - - WNW 0,0
20.08.2019 07:00:00 14,4 9,8 26 14 - - WNW 0,0
20.08.2019 06:00:00 14,5 10,3 26 14 - - WNW 0,0
20.08.2019 05:00:00 14,6 10,4 28 15 - - WNW 0,0
20.08.2019 04:00:00 14,8 10,6 28 15 - - WNW 0,0
20.08.2019 03:00:00 14,8 10,2 26 14 - - NW 0,0
20.08.2019 02:00:00 15,1 10,3 29 16 - - WNW 0,0
20.08.2019 01:00:00 15,4 11,2 29 16 46 25 WNW 0,0

tt = Température de l'air
td = dewpoint
ff = Vitesse du vent
fx = gusts
dd = Direction du vent
rr = Quantités de précipitations

stations d'obs. à proximité